createdAt,value
2023-01-17T00:00:01.036Z,2.85
2023-01-17T00:02:30.862Z,3.20
2023-01-17T00:05:17.087Z,2.88
2023-01-17T00:08:01.859Z,3.05
2023-01-17T00:10:28.554Z,3.15
2023-01-17T00:13:03.285Z,3.30
2023-01-17T00:15:31.192Z,3.50
2023-01-17T00:17:58.251Z,4.10
2023-01-17T00:20:46.504Z,3.17
2023-01-17T00:23:36.013Z,3.75
2023-01-17T00:26:04.208Z,3.58
2023-01-17T00:28:38.937Z,3.25
2023-01-17T00:31:07.905Z,3.65
2023-01-17T00:33:34.731Z,3.70
2023-01-17T00:36:02.805Z,3.40
2023-01-17T00:38:32.029Z,2.97
2023-01-17T00:41:03.519Z,2.60
2023-01-17T00:43:49.357Z,3.00
2023-01-17T00:46:35.265Z,2.60
2023-01-17T00:49:20.270Z,2.20
2023-01-17T00:52:05.071Z,2.08
2023-01-17T00:54:49.995Z,1.55
2023-01-17T00:57:34.681Z,1.73
2023-01-17T01:00:19.824Z,1.20
2023-01-17T01:03:04.617Z,1.58
2023-01-17T01:05:50.139Z,1.60
2023-01-17T01:08:44.174Z,1.73
2023-01-17T01:11:32.698Z,1.92
2023-01-17T01:14:19.301Z,2.00
2023-01-17T01:17:05.174Z,2.50
2023-01-17T01:19:50.698Z,2.20
2023-01-17T01:22:36.253Z,2.72
2023-01-17T01:25:22.170Z,2.63
2023-01-17T01:28:07.112Z,2.65
2023-01-17T01:30:51.885Z,3.63
2023-01-17T01:33:21.092Z,4.07
2023-01-17T01:35:52.166Z,4.47
2023-01-17T01:38:20.693Z,4.07
2023-01-17T01:40:49.718Z,4.50
2023-01-17T01:43:19.928Z,4.57
2023-01-17T01:45:57.823Z,4.35
2023-01-17T01:48:35.854Z,4.07
2023-01-17T01:51:07.491Z,3.90
2023-01-17T01:53:37.166Z,3.45
2023-01-17T01:56:08.996Z,3.00
2023-01-17T01:58:37.798Z,2.42
2023-01-17T02:01:06.865Z,2.00
2023-01-17T02:03:34.694Z,2.38
2023-01-17T02:06:16.174Z,2.17
2023-01-17T02:08:42.710Z,2.20
2023-01-17T02:11:09.598Z,1.08
2023-01-17T02:13:36.484Z,0.80
2023-01-17T02:16:17.958Z,0.98
2023-01-17T02:19:13.906Z,0.73
2023-01-17T02:21:58.113Z,1.05
2023-01-17T02:24:43.244Z,0.95
2023-01-17T02:27:12.768Z,1.08
2023-01-17T02:30:28.855Z,1.13
2023-01-17T02:33:23.485Z,1.33
2023-01-17T02:36:23.642Z,1.17
2023-01-17T02:38:58.937Z,0.90
2023-01-17T02:41:32.518Z,0.98
2023-01-17T02:43:58.920Z,0.95
2023-01-17T02:46:25.481Z,0.70
2023-01-17T02:48:52.258Z,0.90
2023-01-17T02:51:44.642Z,0.98
2023-01-17T02:54:20.477Z,0.73
2023-01-17T02:57:22.034Z,0.90
2023-01-17T03:00:15.216Z,0.93
2023-01-17T03:02:57.334Z,1.20
2023-01-17T03:06:00.665Z,1.00
2023-01-17T03:08:28.376Z,1.25
2023-01-17T03:10:55.292Z,1.35
2023-01-17T03:13:21.896Z,1.10
2023-01-17T03:15:48.553Z,1.42
2023-01-17T03:18:17.040Z,1.15
2023-01-17T03:20:43.565Z,1.30
2023-01-17T03:23:10.037Z,1.40
2023-01-17T03:25:36.523Z,1.80
2023-01-17T03:28:03.247Z,1.48
2023-01-17T03:30:29.773Z,1.60
2023-01-17T03:32:56.422Z,1.90
2023-01-17T03:35:23.027Z,2.08
2023-01-17T03:37:49.488Z,2.30
2023-01-17T03:40:16.251Z,2.20
2023-01-17T03:42:43.823Z,2.53
2023-01-17T03:45:11.111Z,2.42
2023-01-17T03:47:37.556Z,2.50
2023-01-17T03:50:04.683Z,2.63
2023-01-17T03:52:31.179Z,2.63
2023-01-17T03:54:57.733Z,2.55
2023-01-17T03:57:24.305Z,2.42
2023-01-17T03:59:50.797Z,2.40
2023-01-17T04:02:17.736Z,2.75
2023-01-17T04:04:44.455Z,3.13
2023-01-17T04:07:10.886Z,2.97
2023-01-17T04:09:37.415Z,3.38
2023-01-17T04:12:03.983Z,4.28
2023-01-17T04:14:30.476Z,3.40
2023-01-17T04:16:57.245Z,3.38
2023-01-17T04:19:23.790Z,4.00
2023-01-17T04:21:50.247Z,3.40
2023-01-17T04:24:18.034Z,3.30
2023-01-17T04:26:44.943Z,2.92
2023-01-17T04:29:11.443Z,2.90
2023-01-17T04:31:37.903Z,2.63
2023-01-17T04:34:04.346Z,2.50
2023-01-17T04:36:30.819Z,2.88
2023-01-17T04:38:57.271Z,2.83
2023-01-17T04:41:23.796Z,2.42
2023-01-17T04:43:50.246Z,2.55
2023-01-17T04:46:16.748Z,2.47
2023-01-17T04:48:43.309Z,2.38
2023-01-17T04:51:09.747Z,2.60
2023-01-17T04:53:36.271Z,2.88
2023-01-17T04:56:03.237Z,2.90
2023-01-17T04:58:29.845Z,2.90
2023-01-17T05:01:00.640Z,2.80
2023-01-17T05:03:27.054Z,2.95
2023-01-17T05:05:53.483Z,3.05
2023-01-17T05:08:19.969Z,3.65
2023-01-17T05:10:46.973Z,3.15
2023-01-17T05:13:14.261Z,3.67
2023-01-17T05:15:41.236Z,3.47
2023-01-17T05:18:12.598Z,3.13
2023-01-17T05:20:39.448Z,3.28
2023-01-17T05:23:05.896Z,3.85
2023-01-17T05:25:33.226Z,3.10
2023-01-17T05:28:00.443Z,3.90
2023-01-17T05:30:28.786Z,4.38
2023-01-17T05:32:56.867Z,3.20
2023-01-17T05:35:29.125Z,4.45
2023-01-17T05:37:56.232Z,4.60
2023-01-17T05:40:26.922Z,4.68
2023-01-17T05:42:54.932Z,4.88
2023-01-17T05:45:24.109Z,5.13
2023-01-17T05:47:52.886Z,5.13
2023-01-17T05:50:25.574Z,5.30
2023-01-17T05:53:00.747Z,5.72
2023-01-17T05:55:28.401Z,5.75
2023-01-17T05:57:55.906Z,6.07
2023-01-17T06:00:23.213Z,6.88
2023-01-17T06:02:49.994Z,6.45
2023-01-17T06:05:16.968Z,7.22
2023-01-17T06:07:45.187Z,6.97
2023-01-17T06:10:14.632Z,7.57
2023-01-17T06:12:45.438Z,7.40
2023-01-17T06:15:13.786Z,8.32
2023-01-17T06:17:40.308Z,9.20
2023-01-17T06:20:09.195Z,9.85
2023-01-17T06:22:35.796Z,9.82
2023-01-17T06:25:02.714Z,10.80
2023-01-17T06:27:29.370Z,10.15
2023-01-17T06:29:55.800Z,9.80
2023-01-17T06:32:22.223Z,10.90
2023-01-17T06:34:49.063Z,11.05
2023-01-17T06:37:15.559Z,11.23
2023-01-17T06:39:42.218Z,10.90
2023-01-17T06:42:08.640Z,10.85
2023-01-17T06:44:35.155Z,10.63
2023-01-17T06:47:01.640Z,11.63
2023-01-17T06:49:28.188Z,11.85
2023-01-17T06:51:54.673Z,12.10
2023-01-17T06:54:21.075Z,12.50
2023-01-17T06:56:47.507Z,13.07
2023-01-17T06:59:13.907Z,14.32
2023-01-17T07:01:41.418Z,15.35
2023-01-17T07:04:08.174Z,14.85
2023-01-17T07:06:36.498Z,14.80
2023-01-17T07:09:04.166Z,14.50
2023-01-17T07:11:31.176Z,15.82
2023-01-17T07:13:57.771Z,16.23
2023-01-17T07:16:24.349Z,16.23
2023-01-17T07:18:51.797Z,16.95
2023-01-17T07:21:18.562Z,16.02
2023-01-17T07:23:45.012Z,16.35
2023-01-17T07:26:11.468Z,15.85
2023-01-17T07:28:37.942Z,16.45
2023-01-17T07:31:08.419Z,17.10
2023-01-17T07:33:35.362Z,15.98
2023-01-17T07:36:09.282Z,15.30
2023-01-17T07:38:35.888Z,16.30
2023-01-17T07:41:02.345Z,16.33
2023-01-17T07:43:29.423Z,15.70
2023-01-17T07:45:56.007Z,16.15
2023-01-17T07:48:23.971Z,14.95
2023-01-17T07:50:58.237Z,14.48
2023-01-17T07:53:28.181Z,14.00
2023-01-17T07:55:55.241Z,13.85
2023-01-17T07:58:21.940Z,13.20
2023-01-17T08:00:48.512Z,14.45
2023-01-17T08:03:17.644Z,12.65
2023-01-17T08:05:54.627Z,12.50
2023-01-17T08:08:21.134Z,13.60
2023-01-17T08:10:47.560Z,13.57
2023-01-17T08:13:14.007Z,12.85
2023-01-17T08:15:40.546Z,12.88
2023-01-17T08:18:06.976Z,12.13
2023-01-17T08:20:33.460Z,13.50
2023-01-17T08:22:59.870Z,13.35
2023-01-17T08:25:27.399Z,13.05
2023-01-17T08:27:57.829Z,13.40
2023-01-17T08:30:25.286Z,13.35
2023-01-17T08:32:51.785Z,13.52
2023-01-17T08:35:19.928Z,14.63
2023-01-17T08:37:47.739Z,14.60
2023-01-17T08:40:17.546Z,14.77
2023-01-17T08:42:44.193Z,15.60
2023-01-17T08:45:11.794Z,16.65
2023-01-17T08:47:38.528Z,15.70
2023-01-17T08:50:06.769Z,16.45
2023-01-17T08:52:33.825Z,16.85
2023-01-17T08:55:00.306Z,15.88
2023-01-17T08:57:26.897Z,16.15
2023-01-17T08:59:53.512Z,16.42
2023-01-17T09:02:20.986Z,17.20
2023-01-17T09:04:49.002Z,16.85
2023-01-17T09:07:17.303Z,16.80
2023-01-17T09:09:43.805Z,16.50
2023-01-17T09:12:10.546Z,16.02
2023-01-17T09:14:37.667Z,15.73
2023-01-17T09:17:06.726Z,15.80
2023-01-17T09:19:33.265Z,16.05
2023-01-17T09:21:59.688Z,14.90
2023-01-17T09:24:26.131Z,15.15
2023-01-17T09:26:52.644Z,16.00
2023-01-17T09:29:19.083Z,15.90
2023-01-17T09:31:47.295Z,15.30
2023-01-17T09:34:15.336Z,15.05
2023-01-17T09:36:42.408Z,14.63
2023-01-17T09:39:10.886Z,14.57
2023-01-17T09:41:47.420Z,15.25
2023-01-17T09:44:27.973Z,14.80
2023-01-17T09:47:00.010Z,14.25
2023-01-17T09:49:32.568Z,14.38
2023-01-17T09:51:59.826Z,13.98
2023-01-17T09:54:37.726Z,14.05
2023-01-17T09:57:25.530Z,14.05
2023-01-17T10:00:34.320Z,14.75
2023-01-17T10:03:06.692Z,15.02
2023-01-17T10:05:50.036Z,14.57
2023-01-17T10:08:26.614Z,14.35
2023-01-17T10:11:23.536Z,14.18
2023-01-17T10:14:28.133Z,14.13
2023-01-17T10:17:28.674Z,13.75
2023-01-17T10:20:17.011Z,12.75
2023-01-17T10:23:22.077Z,13.38
2023-01-17T10:25:50.186Z,11.90
2023-01-17T10:28:31.895Z,11.43
2023-01-17T10:31:03.666Z,11.80
2023-01-17T10:33:40.329Z,12.60
2023-01-17T10:36:24.350Z,10.63
2023-01-17T10:38:54.325Z,12.07
2023-01-17T10:41:45.066Z,13.02
2023-01-17T10:44:20.558Z,12.95
2023-01-17T10:47:16.006Z,12.02
2023-01-17T10:49:46.285Z,11.88
2023-01-17T10:52:16.737Z,11.07
2023-01-17T10:54:52.576Z,11.32
2023-01-17T10:57:25.238Z,11.27
2023-01-17T10:59:52.717Z,11.15
2023-01-17T11:02:35.763Z,9.85
2023-01-17T11:05:10.958Z,11.38
2023-01-17T11:07:39.983Z,11.10
2023-01-17T11:10:27.123Z,10.65
2023-01-17T11:12:53.664Z,11.25
2023-01-17T11:15:25.798Z,10.00
2023-01-17T11:18:02.049Z,10.32
2023-01-17T11:20:42.943Z,10.13
2023-01-17T11:23:29.821Z,9.38
2023-01-17T11:25:59.795Z,9.57
2023-01-17T11:28:31.568Z,9.80
2023-01-17T11:31:07.547Z,9.20
2023-01-17T11:33:49.094Z,10.02
2023-01-17T11:36:24.627Z,8.52
2023-01-17T11:38:57.175Z,9.23
2023-01-17T11:41:25.116Z,9.20
2023-01-17T11:43:56.205Z,9.18
2023-01-17T11:46:23.952Z,8.10
2023-01-17T11:48:56.348Z,7.90
2023-01-17T11:51:25.290Z,8.63
2023-01-17T11:53:54.060Z,7.40
2023-01-17T11:56:29.169Z,6.93
2023-01-17T11:59:17.432Z,7.65
2023-01-17T12:02:01.095Z,7.78
2023-01-17T12:04:36.394Z,6.55
2023-01-17T12:07:05.991Z,7.05
2023-01-17T12:09:32.381Z,6.78
2023-01-17T12:12:32.935Z,7.55
2023-01-17T12:15:21.073Z,6.80
2023-01-17T12:18:06.141Z,7.35
2023-01-17T12:20:51.638Z,7.10
2023-01-17T12:23:50.749Z,6.25
2023-01-17T12:26:34.839Z,7.60
2023-01-17T12:29:04.311Z,7.05
2023-01-17T12:31:41.459Z,7.43
2023-01-17T12:34:50.810Z,6.65
2023-01-17T12:37:31.658Z,6.53
2023-01-17T12:40:02.403Z,7.18
2023-01-17T12:42:37.478Z,6.05
2023-01-17T12:45:03.924Z,5.75
2023-01-17T12:47:34.369Z,5.32
2023-01-17T12:50:06.098Z,5.85
2023-01-17T12:52:42.467Z,5.30
2023-01-17T12:55:17.550Z,5.25
2023-01-17T12:57:52.060Z,5.97
2023-01-17T13:00:25.374Z,4.70
2023-01-17T13:03:14.281Z,5.45
2023-01-17T13:05:45.928Z,6.10
2023-01-17T13:08:43.608Z,5.47
2023-01-17T13:11:28.528Z,5.10
2023-01-17T13:13:57.464Z,4.78
2023-01-17T13:16:44.983Z,4.95
2023-01-17T13:19:23.718Z,5.25
2023-01-17T13:21:50.549Z,5.50
2023-01-17T13:24:22.610Z,4.78
2023-01-17T13:26:55.445Z,5.65
2023-01-17T13:29:52.208Z,4.80
2023-01-17T13:32:39.730Z,4.57
2023-01-17T13:35:18.363Z,4.13
2023-01-17T13:37:50.972Z,5.07
2023-01-17T13:40:35.153Z,3.90
2023-01-17T13:43:06.096Z,4.25
2023-01-17T13:45:35.774Z,5.47
2023-01-17T13:48:18.020Z,5.25
2023-01-17T13:50:44.393Z,5.57
2023-01-17T13:53:31.328Z,7.20
2023-01-17T13:56:19.482Z,4.63
2023-01-17T13:58:54.348Z,4.63
2023-01-17T14:01:24.186Z,4.68
2023-01-17T14:03:53.719Z,5.47
2023-01-17T14:06:40.626Z,5.63
2023-01-17T14:09:22.164Z,5.85
2023-01-17T14:12:05.423Z,5.38
2023-01-17T14:14:42.825Z,5.25
2023-01-17T14:17:27.959Z,5.15
2023-01-17T14:19:57.692Z,4.97
2023-01-17T14:22:27.226Z,5.15
2023-01-17T14:25:15.149Z,5.18
2023-01-17T14:27:55.445Z,4.97
2023-01-17T14:30:33.858Z,5.78
2023-01-17T14:33:04.425Z,7.72
2023-01-17T14:35:36.827Z,6.95
2023-01-17T14:38:12.377Z,6.27
2023-01-17T14:40:39.035Z,4.88
2023-01-17T14:43:11.708Z,4.20
2023-01-17T14:45:39.206Z,3.30
2023-01-17T14:48:14.626Z,4.20
2023-01-17T14:50:43.847Z,4.60
2023-01-17T14:53:15.960Z,5.20
2023-01-17T14:55:48.914Z,5.50
2023-01-17T14:58:20.673Z,6.00
2023-01-17T15:00:50.071Z,6.38
2023-01-17T15:03:17.590Z,5.78
2023-01-17T15:05:49.807Z,6.05
2023-01-17T15:08:34.866Z,6.35
2023-01-17T15:11:18.174Z,5.15
2023-01-17T15:13:49.350Z,6.30
2023-01-17T15:16:23.951Z,6.25
2023-01-17T15:18:51.942Z,5.70
2023-01-17T15:21:22.012Z,6.10
2023-01-17T15:24:03.485Z,5.80
2023-01-17T15:26:34.278Z,6.00
2023-01-17T15:29:22.532Z,5.35
2023-01-17T15:31:53.913Z,5.25
2023-01-17T15:34:36.513Z,5.57
2023-01-17T15:37:21.278Z,5.75
2023-01-17T15:39:48.080Z,5.40
2023-01-17T15:42:28.426Z,5.45
2023-01-17T15:44:58.556Z,5.95
2023-01-17T15:47:35.430Z,5.28
2023-01-17T15:50:27.713Z,5.40
2023-01-17T15:53:00.777Z,5.05
2023-01-17T15:55:35.741Z,6.20
2023-01-17T15:58:03.450Z,5.28
2023-01-17T16:00:37.194Z,5.47
2023-01-17T16:03:26.167Z,6.50
2023-01-17T16:05:56.752Z,5.45
2023-01-17T16:08:26.611Z,5.70
2023-01-17T16:11:01.889Z,5.55
2023-01-17T16:13:31.172Z,5.75
2023-01-17T16:16:21.309Z,5.82
2023-01-17T16:18:49.021Z,6.63
2023-01-17T16:21:18.715Z,6.22
2023-01-17T16:23:46.763Z,6.05
2023-01-17T16:26:13.496Z,7.15
2023-01-17T16:28:39.947Z,6.18
2023-01-17T16:31:06.464Z,6.03
2023-01-17T16:33:32.923Z,6.72
2023-01-17T16:35:59.415Z,7.10
2023-01-17T16:38:25.962Z,6.93
2023-01-17T16:40:53.926Z,6.07
2023-01-17T16:43:20.497Z,6.97
2023-01-17T16:45:50.315Z,7.18
2023-01-17T16:48:19.318Z,7.07
2023-01-17T16:50:50.490Z,7.57
2023-01-17T16:53:22.569Z,7.68
2023-01-17T16:55:53.097Z,7.50
2023-01-17T16:58:20.305Z,7.50
2023-01-17T17:00:47.344Z,7.53
2023-01-17T17:03:18.707Z,8.10
2023-01-17T17:05:53.809Z,7.88
2023-01-17T17:08:20.268Z,7.40
2023-01-17T17:10:47.108Z,8.07
2023-01-17T17:13:13.519Z,8.35
2023-01-17T17:15:43.916Z,8.43
2023-01-17T17:18:15.230Z,8.77
2023-01-17T17:20:42.326Z,8.85
2023-01-17T17:23:10.258Z,9.80
2023-01-17T17:25:37.625Z,9.82
2023-01-17T17:28:05.380Z,9.30
2023-01-17T17:30:33.265Z,10.38
2023-01-17T17:32:59.728Z,10.43
2023-01-17T17:35:26.702Z,10.85
2023-01-17T17:37:53.484Z,11.85
2023-01-17T17:40:20.191Z,13.07
2023-01-17T17:42:46.625Z,12.20
2023-01-17T17:45:13.058Z,15.57
2023-01-17T17:47:39.461Z,14.63
2023-01-17T17:50:06.631Z,16.90
2023-01-17T17:52:33.054Z,15.23
2023-01-17T17:54:59.595Z,15.55
2023-01-17T17:57:26.116Z,15.80
2023-01-17T17:59:55.869Z,14.82
2023-01-17T18:02:22.420Z,14.52
2023-01-17T18:04:48.877Z,14.73
2023-01-17T18:07:15.394Z,15.52
2023-01-17T18:09:41.829Z,17.63
2023-01-17T18:12:08.348Z,17.92
2023-01-17T18:14:34.809Z,18.98
2023-01-17T18:17:01.274Z,20.15
2023-01-17T18:19:27.754Z,20.00
2023-01-17T18:21:54.496Z,19.35
2023-01-17T18:24:23.281Z,18.60
2023-01-17T18:26:52.588Z,18.63
2023-01-17T18:29:20.762Z,18.25
2023-01-17T18:31:49.982Z,16.95
2023-01-17T18:34:23.602Z,17.63
2023-01-17T18:36:51.614Z,17.65
2023-01-17T18:39:24.457Z,17.05
2023-01-17T18:41:51.425Z,18.52
2023-01-17T18:44:21.620Z,17.55
2023-01-17T18:46:48.913Z,18.90
2023-01-17T18:49:18.396Z,18.75
2023-01-17T18:51:48.780Z,18.35
2023-01-17T18:54:15.216Z,19.80
2023-01-17T18:56:42.429Z,19.15
2023-01-17T18:59:12.416Z,20.63
2023-01-17T19:01:42.180Z,20.40
2023-01-17T19:04:09.149Z,21.83
2023-01-17T19:06:38.693Z,21.83
2023-01-17T19:09:07.327Z,21.08
2023-01-17T19:11:35.293Z,20.10
2023-01-17T19:14:01.835Z,19.30
2023-01-17T19:16:34.927Z,20.35
2023-01-17T19:19:05.464Z,19.23
2023-01-17T19:21:32.423Z,19.80
2023-01-17T19:23:59.415Z,19.70
2023-01-17T19:26:27.248Z,20.30
2023-01-17T19:28:56.241Z,19.75
2023-01-17T19:31:28.285Z,21.05
2023-01-17T19:33:57.409Z,18.50
2023-01-17T19:36:27.829Z,19.80
2023-01-17T19:39:03.957Z,20.48
2023-01-17T19:41:32.820Z,19.05
2023-01-17T19:44:01.449Z,19.83
2023-01-17T19:46:28.496Z,20.60
2023-01-17T19:48:57.049Z,19.98
2023-01-17T19:51:24.639Z,22.00
2023-01-17T19:53:51.399Z,23.20
2023-01-17T19:56:20.649Z,22.00
2023-01-17T19:58:47.801Z,21.33
2023-01-17T20:01:19.706Z,21.48
2023-01-17T20:03:47.094Z,21.55
2023-01-17T20:06:16.850Z,22.63
2023-01-17T20:08:43.633Z,23.02
2023-01-17T20:11:17.446Z,25.98
2023-01-17T20:13:45.597Z,28.10
2023-01-17T20:16:15.058Z,27.67
2023-01-17T20:18:42.474Z,31.25
2023-01-17T20:21:15.248Z,31.00
2023-01-17T20:23:43.305Z,30.20
2023-01-17T20:26:11.559Z,28.67
2023-01-17T20:28:40.833Z,26.88
2023-01-17T20:31:15.455Z,26.83
2023-01-17T20:33:43.663Z,25.45
2023-01-17T20:36:14.746Z,26.58
2023-01-17T20:38:46.152Z,25.50
2023-01-17T20:41:25.816Z,25.55
2023-01-17T20:43:54.336Z,26.05
2023-01-17T20:46:22.999Z,27.70
2023-01-17T20:48:57.886Z,26.35
2023-01-17T20:51:26.620Z,24.73
2023-01-17T20:53:59.103Z,25.30
2023-01-17T20:56:26.694Z,25.20
2023-01-17T20:58:54.473Z,23.95
2023-01-17T21:01:24.155Z,27.45
2023-01-17T21:03:53.038Z,30.17
2023-01-17T21:06:21.635Z,30.00
2023-01-17T21:08:48.663Z,29.27
2023-01-17T21:11:18.593Z,31.92
2023-01-17T21:13:45.521Z,29.05
2023-01-17T21:16:14.398Z,27.55
2023-01-17T21:18:41.044Z,27.15
2023-01-17T21:21:12.689Z,26.65
2023-01-17T21:23:40.627Z,26.77
2023-01-17T21:26:10.727Z,26.10
2023-01-17T21:28:38.982Z,26.45
2023-01-17T21:31:19.369Z,27.92
2023-01-17T21:33:47.447Z,27.83
2023-01-17T21:36:14.003Z,27.55
2023-01-17T21:38:40.506Z,27.88
2023-01-17T21:41:06.950Z,29.17
2023-01-17T21:43:33.578Z,27.05
2023-01-17T21:46:05.488Z,28.38
2023-01-17T21:48:32.046Z,26.92
2023-01-17T21:51:06.311Z,28.77
2023-01-17T21:53:35.497Z,28.27
2023-01-17T21:56:22.807Z,27.95
2023-01-17T21:58:53.929Z,27.52
2023-01-17T22:01:22.770Z,26.10
2023-01-17T22:04:02.610Z,27.50
2023-01-17T22:06:31.563Z,26.08
2023-01-17T22:08:59.161Z,26.58
2023-01-17T22:11:26.979Z,26.27
2023-01-17T22:13:53.744Z,26.30
2023-01-17T22:16:23.431Z,27.30
2023-01-17T22:18:50.777Z,26.42
2023-01-17T22:21:20.795Z,27.23
2023-01-17T22:23:56.291Z,25.90
2023-01-17T22:26:25.433Z,25.73
2023-01-17T22:28:52.491Z,26.60
2023-01-17T22:31:22.795Z,27.83
2023-01-17T22:34:07.176Z,25.85
2023-01-17T22:36:34.508Z,24.80
2023-01-17T22:39:01.532Z,25.00
2023-01-17T22:41:33.685Z,23.83
2023-01-17T22:44:05.404Z,23.27
2023-01-17T22:46:33.814Z,22.95
2023-01-17T22:49:00.496Z,22.75
2023-01-17T22:51:28.503Z,22.25
2023-01-17T22:54:00.044Z,20.88
2023-01-17T22:56:29.209Z,21.35
2023-01-17T22:58:55.824Z,20.65
2023-01-17T23:01:27.893Z,19.90
2023-01-17T23:03:57.106Z,20.08
2023-01-17T23:06:30.233Z,19.20
2023-01-17T23:08:59.341Z,20.00
2023-01-17T23:11:39.139Z,20.27
2023-01-17T23:14:12.433Z,18.17
2023-01-17T23:17:15.259Z,20.08
2023-01-17T23:19:47.136Z,19.13
2023-01-17T23:22:17.090Z,19.67
2023-01-17T23:24:53.430Z,19.08
2023-01-17T23:27:47.695Z,18.67
2023-01-17T23:30:17.539Z,18.52
2023-01-17T23:32:46.496Z,19.15
2023-01-17T23:35:13.943Z,19.15
2023-01-17T23:37:59.344Z,19.30
2023-01-17T23:40:25.926Z,17.63
2023-01-17T23:43:11.045Z,18.88
2023-01-17T23:45:39.047Z,19.90
2023-01-17T23:48:09.482Z,19.88
2023-01-17T23:50:44.135Z,20.35
2023-01-17T23:53:15.354Z,19.92
2023-01-17T23:55:43.649Z,19.70
2023-01-17T23:58:11.279Z,19.48
